Time;durP1;ratioP1;P1;durP2;ratioP2;P2;SDS_P1;SDS_P2;PMS_P1;PMS_P2;Temp;Humidity;BMP_temperature;BMP_pressure;BME280_temperature;BME280_humidity;BME280_pressure;Samples;Min_cycle;Max_cycle;Signal;HPM_P1;HPM_P2
2022/11/15 00:01:08;;;;;;;25.90;14.50;;;;;;;;;;5081990;28;20461;-68
2022/11/15 00:03:37;;;;;;;20.47;12.33;;;;;;;;;;5082524;28;20463;-68
2022/11/15 00:06:05;;;;;;;27.97;13.90;;;;;;;;;;5080077;28;20498;-68
2022/11/15 00:08:38;;;;;;;23.50;12.43;;;;;;;;;;5080268;28;20547;-68
2022/11/15 00:11:05;;;;;;;21.60;12.43;;;;;;;;;;5079519;28;20475;-68
2022/11/15 00:13:33;;;;;;;18.03;12.53;;;;;;;;;;5078730;28;20484;-68
2022/11/15 00:16:01;;;;;;;23.50;14.10;;;;;;;;;;5079355;28;20479;-68
2022/11/15 00:18:29;;;;;;;28.80;13.00;;;;;;;;;;5087017;28;20491;-69
2022/11/15 00:21:11;;;;;;;26.47;14.00;;;;;;;;;;5086496;28;20452;-66
2022/11/15 00:23:47;;;;;;;20.23;13.27;;;;;;;;;;5078756;28;20460;-69
2022/11/15 00:26:16;;;;;;;25.00;13.87;;;;;;;;;;5078966;28;20483;-68
2022/11/15 00:28:47;;;;;;;24.43;14.60;;;;;;;;;;5087588;28;20472;-68
2022/11/15 00:31:18;;;;;;;20.93;12.13;;;;;;;;;;5077117;28;20636;-66
2022/11/15 00:33:50;;;;;;;22.50;13.80;;;;;;;;;;5064868;28;20969;-68
2022/11/15 00:36:24;;;;;;;21.90;13.77;;;;;;;;;;5090785;28;20470;-67
2022/11/15 00:38:55;;;;;;;18.50;12.50;;;;;;;;;;5093614;28;20510;-68
2022/11/15 00:41:28;;;;;;;20.07;13.70;;;;;;;;;;5099026;28;20944;-67
2022/11/15 00:44:04;;;;;;;20.67;12.77;;;;;;;;;;5079730;28;20480;-69
2022/11/15 00:46:32;;;;;;;22.03;14.60;;;;;;;;;;5073495;28;20455;-67
2022/11/15 00:49:00;;;;;;;22.10;14.33;;;;;;;;;;5092497;28;20455;-68
2022/11/15 00:51:29;;;;;;;25.33;14.33;;;;;;;;;;5081621;28;20457;-66
2022/11/15 00:53:56;;;;;;;20.37;11.30;;;;;;;;;;5093603;28;20490;-67
2022/11/15 00:56:24;;;;;;;17.33;11.57;;;;;;;;;;5079164;28;20543;-67
2022/11/15 00:58:52;;;;;;;22.37;13.03;;;;;;;;;;5088969;28;20447;-68
2022/11/15 01:01:19;;;;;;;18.80;12.20;;;;;;;;;;5093324;28;20790;-68
2022/11/15 01:03:47;;;;;;;24.27;14.67;;;;;;;;;;5085535;28;20887;-68
2022/11/15 01:06:15;;;;;;;21.23;11.80;;;;;;;;;;5081893;28;20452;-68
2022/11/15 01:08:44;;;;;;;20.60;11.90;;;;;;;;;;5069864;28;20854;-69
2022/11/15 01:11:13;;;;;;;23.67;12.90;;;;;;;;;;5081674;28;20856;-69
2022/11/15 01:13:41;;;;;;;22.93;13.47;;;;;;;;;;5078308;28;20490;-69
2022/11/15 01:16:10;;;;;;;26.70;15.87;;;;;;;;;;5077996;28;21009;-70
2022/11/15 01:18:38;;;;;;;20.60;12.80;;;;;;;;;;5077895;28;20932;-68
2022/11/15 01:21:09;;;;;;;19.80;12.70;;;;;;;;;;5077983;28;20457;-68
2022/11/15 01:23:37;;;;;;;22.80;13.17;;;;;;;;;;5078427;28;20452;-67
2022/11/15 01:26:07;;;;;;;23.53;12.97;;;;;;;;;;5077774;28;20863;-68
2022/11/15 01:28:35;;;;;;;19.53;12.63;;;;;;;;;;5077897;28;20812;-68
2022/11/15 01:31:04;;;;;;;20.67;12.60;;;;;;;;;;5077283;28;20543;-68
2022/11/15 01:33:33;;;;;;;21.30;13.00;;;;;;;;;;5077586;28;20472;-67
2022/11/15 01:36:05;;;;;;;21.60;14.10;;;;;;;;;;5082291;28;20509;-68
2022/11/15 01:38:36;;;;;;;23.07;14.03;;;;;;;;;;5088670;28;20456;-68
2022/11/15 01:41:04;;;;;;;23.67;13.37;;;;;;;;;;5085298;28;20918;-69
2022/11/15 01:43:54;;;;;;;20.50;11.70;;;;;;;;;;5087961;28;20456;-68
2022/11/15 01:46:26;;;;;;;22.07;12.37;;;;;;;;;;5078824;28;20476;-68
2022/11/15 01:48:55;;;;;;;22.13;12.73;;;;;;;;;;5089425;28;20467;-69
2022/11/15 01:51:25;;;;;;;22.50;11.07;;;;;;;;;;5097737;27;20448;-68
2022/11/15 01:53:55;;;;;;;21.73;11.33;;;;;;;;;;5093590;28;20502;-67
2022/11/15 01:56:24;;;;;;;19.57;11.50;;;;;;;;;;5098008;28;20735;-67
2022/11/15 01:58:55;;;;;;;20.87;12.90;;;;;;;;;;5097149;28;20463;-67
2022/11/15 02:01:23;;;;;;;19.80;12.00;;;;;;;;;;5087637;28;20525;-67
2022/11/15 02:03:53;;;;;;;17.43;11.57;;;;;;;;;;5069733;28;20826;-68
2022/11/15 02:06:22;;;;;;;17.40;12.10;;;;;;;;;;5069989;28;20461;-67
2022/11/15 02:08:49;;;;;;;17.40;10.57;;;;;;;;;;5061133;28;20461;-67
2022/11/15 02:11:17;;;;;;;19.60;10.60;;;;;;;;;;5077150;28;20451;-68
2022/11/15 02:13:46;;;;;;;21.10;11.30;;;;;;;;;;5077084;28;20919;-67
2022/11/15 02:16:20;;;;;;;25.87;12.57;;;;;;;;;;5076823;28;20488;-68
2022/11/15 02:18:54;;;;;;;19.27;11.80;;;;;;;;;;5061278;28;20861;-67
2022/11/15 02:21:25;;;;;;;17.00;12.10;;;;;;;;;;5076962;28;20531;-68
2022/11/15 02:24:10;;;;;;;16.80;10.17;;;;;;;;;;5076605;28;20903;-67
2022/11/15 02:26:56;;;;;;;19.63;11.40;;;;;;;;;;5036410;28;20514;-68
2022/11/15 02:29:32;;;;;;;18.33;12.30;;;;;;;;;;4976050;28;20467;-67
2022/11/15 02:32:13;;;;;;;16.70;10.60;;;;;;;;;;5050045;28;20453;-67
2022/11/15 02:34:47;;;;;;;24.33;12.00;;;;;;;;;;5064830;28;20488;-67
2022/11/15 02:37:18;;;;;;;21.80;12.33;;;;;;;;;;5077905;28;20453;-68
2022/11/15 02:39:55;;;;;;;21.10;10.80;;;;;;;;;;5082801;28;20460;-67
2022/11/15 02:45:12;;;;;;;16.57;10.53;;;;;;;;;;5083781;28;20898;-68
2022/11/15 02:47:48;;;;;;;19.87;11.87;;;;;;;;;;5088726;28;20452;-68
2022/11/15 02:50:18;;;;;;;20.20;11.33;;;;;;;;;;5076805;28;20507;-68
2022/11/15 02:52:49;;;;;;;23.67;13.30;;;;;;;;;;5070010;28;20461;-69
2022/11/15 02:55:28;;;;;;;20.60;12.10;;;;;;;;;;5065818;28;20496;-66
2022/11/15 02:58:01;;;;;;;22.10;10.90;;;;;;;;;;5058388;28;20848;-68
2022/11/15 03:00:31;;;;;;;22.43;12.03;;;;;;;;;;5057345;28;20446;-68
2022/11/15 03:03:06;;;;;;;20.60;11.77;;;;;;;;;;5056607;28;20461;-68
2022/11/15 03:05:37;;;;;;;18.83;12.00;;;;;;;;;;5063087;28;20456;-68
2022/11/15 03:08:08;;;;;;;21.00;10.87;;;;;;;;;;5076817;28;20815;-68
2022/11/15 03:10:43;;;;;;;23.13;12.47;;;;;;;;;;5056232;28;20556;-68
2022/11/15 03:13:18;;;;;;;16.27;10.67;;;;;;;;;;5061311;28;20485;-67
2022/11/15 03:15:49;;;;;;;18.97;11.37;;;;;;;;;;5060673;28;20501;-68
2022/11/15 03:18:21;;;;;;;15.50;10.47;;;;;;;;;;5097413;28;20539;-67
2022/11/15 03:20:50;;;;;;;18.50;11.97;;;;;;;;;;5064886;28;20467;-68
2022/11/15 03:23:19;;;;;;;16.00;10.97;;;;;;;;;;5059898;28;20453;-67
2022/11/15 03:25:48;;;;;;;16.93;10.70;;;;;;;;;;5059177;28;20772;-67
2022/11/15 03:28:18;;;;;;;19.30;11.50;;;;;;;;;;5060102;28;20459;-68
2022/11/15 03:30:49;;;;;;;21.10;11.97;;;;;;;;;;5059811;28;20548;-68
2022/11/15 03:33:20;;;;;;;19.40;10.73;;;;;;;;;;5063987;28;20460;-68
2022/11/15 03:35:48;;;;;;;21.00;12.53;;;;;;;;;;5074220;28;20568;-68
2022/11/15 03:38:19;;;;;;;19.23;11.80;;;;;;;;;;5059604;28;20465;-68
2022/11/15 03:40:48;;;;;;;18.53;11.27;;;;;;;;;;5059486;28;20463;-68
2022/11/15 03:43:23;;;;;;;18.23;9.90;;;;;;;;;;5058673;28;20512;-68
2022/11/15 03:45:53;;;;;;;15.20;9.90;;;;;;;;;;5087578;28;20490;-69
2022/11/15 03:48:24;;;;;;;18.77;11.27;;;;;;;;;;5091602;28;20466;-68
2022/11/15 03:50:52;;;;;;;20.70;10.70;;;;;;;;;;5060472;28;20575;-68
2022/11/15 03:53:22;;;;;;;18.57;9.80;;;;;;;;;;5069305;28;20475;-68
2022/11/15 03:55:50;;;;;;;18.53;11.80;;;;;;;;;;5079206;28;20476;-68
2022/11/15 03:58:18;;;;;;;15.40;9.70;;;;;;;;;;5072265;28;20559;-68
2022/11/15 04:00:46;;;;;;;17.13;10.17;;;;;;;;;;5058722;28;20442;-68
2022/11/15 04:03:13;;;;;;;15.93;10.80;;;;;;;;;;5077136;28;20440;-68
2022/11/15 04:05:43;;;;;;;17.90;10.33;;;;;;;;;;5067462;28;20444;-68
2022/11/15 04:08:10;;;;;;;15.97;9.57;;;;;;;;;;5078821;28;20448;-67
2022/11/15 04:10:38;;;;;;;20.40;9.87;;;;;;;;;;5079050;28;20756;-67
2022/11/15 04:13:06;;;;;;;17.90;10.10;;;;;;;;;;5076766;28;20452;-67
2022/11/15 04:15:36;;;;;;;19.43;9.87;;;;;;;;;;5071695;28;21063;-66
2022/11/15 04:18:04;;;;;;;18.80;12.07;;;;;;;;;;5078417;28;20452;-68
2022/11/15 04:26:06;;;;;;;16.80;10.00;;;;;;;;;;5078507;28;20433;-68
2022/11/15 04:29:33;;;;;;;19.60;10.17;;;;;;;;;;5078350;28;20452;-69
2022/11/15 04:31:24;;;;;;;19.20;11.50;;;;;;;;;;5075174;28;20455;-68
2022/11/15 04:33:52;;;;;;;21.63;11.37;;;;;;;;;;5079229;28;20453;-68
2022/11/15 04:39:06;;;;;;;16.40;9.53;;;;;;;;;;5071073;28;20472;-68
2022/11/15 04:41:34;;;;;;;15.67;10.67;;;;;;;;;;5060255;28;20959;-68
2022/11/15 04:44:01;;;;;;;17.17;9.83;;;;;;;;;;5057960;28;20445;-68
2022/11/15 04:46:30;;;;;;;23.60;10.40;;;;;;;;;;5062667;28;20470;-68
2022/11/15 04:48:57;;;;;;;15.93;8.60;;;;;;;;;;5078032;28;20910;-68
2022/11/15 04:51:25;;;;;;;24.67;10.93;;;;;;;;;;5092461;28;20484;-68
2022/11/15 04:53:53;;;;;;;14.27;9.67;;;;;;;;;;5079084;28;20469;-68
2022/11/15 04:56:23;;;;;;;18.03;10.37;;;;;;;;;;5077478;28;20783;-68
2022/11/15 04:58:51;;;;;;;15.23;9.70;;;;;;;;;;5090858;28;20872;-68
2022/11/15 05:01:20;;;;;;;17.30;11.47;;;;;;;;;;5091207;28;20815;-68
2022/11/15 05:06:33;;;;;;;17.17;10.60;;;;;;;;;;5076205;28;20814;-68
2022/11/15 05:09:01;;;;;;;16.77;9.33;;;;;;;;;;5073812;28;20453;-68
2022/11/15 05:11:31;;;;;;;15.27;9.73;;;;;;;;;;5073609;28;20498;-68
2022/11/15 05:13:59;;;;;;;17.60;11.10;;;;;;;;;;5068180;28;20466;-68
2022/11/15 05:16:30;;;;;;;18.40;11.27;;;;;;;;;;5057142;28;20861;-68
2022/11/15 05:18:58;;;;;;;18.20;9.60;;;;;;;;;;5057742;28;20472;-68
2022/11/15 05:21:28;;;;;;;15.30;10.70;;;;;;;;;;5057925;28;20454;-69
2022/11/15 05:24:02;;;;;;;16.50;8.93;;;;;;;;;;5059081;28;20533;-68
2022/11/15 05:26:31;;;;;;;16.57;10.70;;;;;;;;;;5068705;28;20451;-68
2022/11/15 05:29:05;;;;;;;13.63;9.10;;;;;;;;;;5079435;28;20515;-68
2022/11/15 05:31:33;;;;;;;19.67;10.77;;;;;;;;;;5076890;28;20740;-68
2022/11/15 05:34:02;;;;;;;15.43;9.50;;;;;;;;;;5075137;28;20464;-68
2022/11/15 05:36:33;;;;;;;17.17;9.43;;;;;;;;;;5096145;27;20474;-68
2022/11/15 05:39:00;;;;;;;17.93;9.70;;;;;;;;;;5097100;28;20878;-67
2022/11/15 05:41:31;;;;;;;17.30;10.20;;;;;;;;;;5084982;28;20861;-67
2022/11/15 05:44:07;;;;;;;15.90;10.03;;;;;;;;;;5072521;28;20550;-68
2022/11/15 05:46:35;;;;;;;16.63;10.07;;;;;;;;;;5058033;28;20515;-68
2022/11/15 05:49:04;;;;;;;17.77;9.97;;;;;;;;;;5057550;28;20547;-68
2022/11/15 05:51:32;;;;;;;18.63;11.07;;;;;;;;;;5091788;28;20776;-68
2022/11/15 05:54:00;;;;;;;16.87;10.40;;;;;;;;;;5097617;28;20479;-68
2022/11/15 05:56:28;;;;;;;20.00;10.77;;;;;;;;;;5098030;28;20487;-68
2022/11/15 05:59:01;;;;;;;18.53;10.70;;;;;;;;;;5097457;28;20534;-67
2022/11/15 06:01:31;;;;;;;17.37;11.27;;;;;;;;;;5097453;28;20830;-67
2022/11/15 06:04:01;;;;;;;13.47;9.40;;;;;;;;;;5067854;28;20503;-68
2022/11/15 06:06:32;;;;;;;15.70;10.40;;;;;;;;;;5074908;28;20863;-68
2022/11/15 06:09:01;;;;;;;19.97;9.77;;;;;;;;;;5076153;28;20893;-69
2022/11/15 06:11:32;;;;;;;18.13;10.30;;;;;;;;;;5076482;28;20458;-68
2022/11/15 06:14:03;;;;;;;20.70;10.40;;;;;;;;;;5074246;28;20464;-68
2022/11/15 06:16:32;;;;;;;19.13;10.93;;;;;;;;;;5075355;28;20480;-68
2022/11/15 06:18:59;;;;;;;14.83;9.87;;;;;;;;;;5075577;28;20854;-69
2022/11/15 06:21:29;;;;;;;18.90;9.20;;;;;;;;;;5074376;28;20495;-68
2022/11/15 06:24:03;;;;;;;15.43;9.80;;;;;;;;;;5060692;28;20470;-68
2022/11/15 06:26:34;;;;;;;17.53;10.50;;;;;;;;;;5055150;28;20461;-69
2022/11/15 06:29:12;;;;;;;20.70;11.37;;;;;;;;;;5054557;28;21058;-70
2022/11/15 06:31:46;;;;;;;17.60;10.47;;;;;;;;;;5052479;28;20456;-70
2022/11/15 06:34:21;;;;;;;15.53;10.10;;;;;;;;;;5070181;28;20478;-72
2022/11/15 06:36:48;;;;;;;16.17;9.70;;;;;;;;;;5073925;28;20451;-71
2022/11/15 06:39:16;;;;;;;20.47;10.17;;;;;;;;;;5074694;28;20476;-71
2022/11/15 06:41:45;;;;;;;17.93;10.43;;;;;;;;;;5073352;28;20525;-70
2022/11/15 06:44:13;;;;;;;19.33;9.77;;;;;;;;;;5074161;28;20466;-71
2022/11/15 06:46:47;;;;;;;15.90;10.40;;;;;;;;;;5073588;28;21236;-71
2022/11/15 06:49:17;;;;;;;14.83;9.63;;;;;;;;;;5072708;28;20506;-70
2022/11/15 06:51:47;;;;;;;15.43;9.37;;;;;;;;;;5073467;28;20521;-70
2022/11/15 06:54:20;;;;;;;25.70;10.80;;;;;;;;;;5074545;28;20471;-70
2022/11/15 06:56:49;;;;;;;19.47;11.00;;;;;;;;;;5073427;28;20508;-70
2022/11/15 06:59:18;;;;;;;20.93;11.00;;;;;;;;;;5069655;28;20467;-70
2022/11/15 07:01:48;;;;;;;15.70;10.00;;;;;;;;;;5078068;28;20500;-70
2022/11/15 07:04:17;;;;;;;16.50;10.80;;;;;;;;;;5070602;28;20841;-70
2022/11/15 07:06:48;;;;;;;20.80;11.70;;;;;;;;;;5076797;28;20499;-69
2022/11/15 07:09:18;;;;;;;22.90;10.77;;;;;;;;;;5089166;28;20455;-69
2022/11/15 07:11:45;;;;;;;15.27;10.30;;;;;;;;;;5071448;28;20549;-69
2022/11/15 07:14:13;;;;;;;16.40;9.83;;;;;;;;;;5069000;28;20456;-69
2022/11/15 07:16:41;;;;;;;17.50;10.70;;;;;;;;;;5074061;28;20492;-69
2022/11/15 07:19:10;;;;;;;29.20;17.60;;;;;;;;;;5069849;28;20468;-68
2022/11/15 07:21:38;;;;;;;14.47;9.83;;;;;;;;;;5067684;28;20510;-72
2022/11/15 07:24:06;;;;;;;23.43;10.67;;;;;;;;;;5054222;28;20461;-70
2022/11/15 07:26:34;;;;;;;17.17;11.70;;;;;;;;;;5083009;28;20486;-69
2022/11/15 07:29:02;;;;;;;20.73;11.20;;;;;;;;;;5068230;28;20467;-68
2022/11/15 07:31:30;;;;;;;22.70;10.37;;;;;;;;;;5067936;28;20557;-69
2022/11/15 07:33:58;;;;;;;17.83;11.37;;;;;;;;;;5071686;28;20448;-70
2022/11/15 07:36:28;;;;;;;16.93;10.50;;;;;;;;;;5081777;28;20487;-71
2022/11/15 07:38:57;;;;;;;16.43;10.73;;;;;;;;;;5094319;28;20459;-71
2022/11/15 07:41:30;;;;;;;16.50;10.30;;;;;;;;;;5081913;28;20478;-70
2022/11/15 07:44:14;;;;;;;14.63;9.23;;;;;;;;;;5086681;28;20754;-71
2022/11/15 07:46:49;;;;;;;15.10;11.40;;;;;;;;;;5065985;28;20551;-71
2022/11/15 07:49:24;;;;;;;14.53;9.33;;;;;;;;;;5071649;28;20491;-72
2022/11/15 07:51:59;;;;;;;14.87;10.70;;;;;;;;;;5073123;28;20499;-70
2022/11/15 07:54:35;;;;;;;15.83;10.70;;;;;;;;;;5080279;28;20474;-70
2022/11/15 07:57:04;;;;;;;19.90;11.10;;;;;;;;;;5066682;28;20476;-69
2022/11/15 07:59:44;;;;;;;17.77;10.00;;;;;;;;;;5057410;28;20472;-70
2022/11/15 08:02:13;;;;;;;15.60;8.97;;;;;;;;;;5066133;28;20930;-71
2022/11/15 08:04:52;;;;;;;16.10;10.50;;;;;;;;;;5068003;28;20540;-71
2022/11/15 08:07:23;;;;;;;14.77;9.07;;;;;;;;;;5072826;28;20812;-71
2022/11/15 08:09:50;;;;;;;17.53;12.17;;;;;;;;;;5068953;28;20472;-70
2022/11/15 08:15:05;;;;;;;16.70;9.90;;;;;;;;;;5064622;28;20461;-71
2022/11/15 08:17:55;;;;;;;16.43;10.27;;;;;;;;;;5062243;28;20525;-70
2022/11/15 08:20:24;;;;;;;16.10;9.03;;;;;;;;;;5063843;28;20473;-71
2022/11/15 08:23:02;;;;;;;16.90;9.43;;;;;;;;;;5066890;28;20458;-69
2022/11/15 08:25:39;;;;;;;14.13;9.80;;;;;;;;;;5064046;28;20476;-71
2022/11/15 08:31:38;;;;;;;21.20;11.30;;;;;;;;;;5057108;28;20556;-70
2022/11/15 08:34:13;;;;;;;14.90;9.07;;;;;;;;;;5062614;28;20468;-69
2022/11/15 08:36:41;;;;;;;13.63;10.37;;;;;;;;;;5063898;28;20485;-71
2022/11/15 08:39:12;;;;;;;13.53;9.10;;;;;;;;;;5068085;28;20465;-72
2022/11/15 08:41:50;;;;;;;13.13;8.90;;;;;;;;;;5062405;28;20462;-70
2022/11/15 08:44:22;;;;;;;11.60;8.57;;;;;;;;;;5059893;28;20471;-71
2022/11/15 08:46:54;;;;;;;19.63;10.30;;;;;;;;;;5060887;28;20747;-71
2022/11/15 08:49:22;;;;;;;13.70;7.83;;;;;;;;;;5063279;28;20457;-69
2022/11/15 08:51:50;;;;;;;13.27;9.57;;;;;;;;;;5065454;28;20466;-69
2022/11/15 08:54:39;;;;;;;16.00;9.57;;;;;;;;;;5069842;28;20461;-70
2022/11/15 08:57:12;;;;;;;16.63;8.67;;;;;;;;;;5069663;28;20488;-70
2022/11/15 08:59:51;;;;;;;20.73;9.17;;;;;;;;;;5061326;28;20464;-70
2022/11/15 09:02:25;;;;;;;17.57;9.20;;;;;;;;;;5075608;28;20713;-71
2022/11/15 09:04:54;;;;;;;14.10;9.37;;;;;;;;;;5062170;28;20915;-71
2022/11/15 09:07:23;;;;;;;16.00;9.93;;;;;;;;;;5077698;28;20472;-70
2022/11/15 09:09:53;;;;;;;13.23;9.20;;;;;;;;;;5071611;28;20480;-70
2022/11/15 09:12:22;;;;;;;16.57;11.47;;;;;;;;;;5070492;28;20462;-70
2022/11/15 09:14:50;;;;;;;17.97;8.80;;;;;;;;;;5058743;28;20461;-70
2022/11/15 09:18:00;;;;;;;17.03;9.23;;;;;;;;;;5059294;28;20608;-71
2022/11/15 09:20:28;;;;;;;17.60;9.13;;;;;;;;;;5055182;28;20461;-70
2022/11/15 09:23:04;;;;;;;14.00;9.27;;;;;;;;;;5055907;28;20456;-71
2022/11/15 09:25:36;;;;;;;15.90;10.00;;;;;;;;;;5054984;28;20567;-70
2022/11/15 09:28:07;;;;;;;17.90;11.27;;;;;;;;;;5055951;28;20462;-70
2022/11/15 09:30:37;;;;;;;13.10;8.90;;;;;;;;;;5055404;28;20465;-70
2022/11/15 09:33:21;;;;;;;14.53;9.10;;;;;;;;;;5056294;28;20979;-70
2022/11/15 09:35:53;;;;;;;12.63;8.10;;;;;;;;;;5067789;28;20534;-71
2022/11/15 09:38:32;;;;;;;13.97;9.67;;;;;;;;;;5069352;28;20912;-70
2022/11/15 09:41:15;;;;;;;17.73;9.60;;;;;;;;;;5061846;28;20457;-70
2022/11/15 09:43:53;;;;;;;15.20;8.80;;;;;;;;;;5065373;28;20465;-70
2022/11/15 09:46:29;;;;;;;15.53;9.47;;;;;;;;;;5067673;28;20464;-71
2022/11/15 09:48:57;;;;;;;15.00;9.73;;;;;;;;;;5071794;28;20484;-70
2022/11/15 09:51:31;;;;;;;15.77;8.37;;;;;;;;;;5062544;28;20469;-71
2022/11/15 09:54:04;;;;;;;14.17;8.83;;;;;;;;;;5061350;28;20468;-69
2022/11/15 09:56:34;;;;;;;12.10;8.20;;;;;;;;;;5065558;28;20494;-68
2022/11/15 09:59:08;;;;;;;12.33;8.87;;;;;;;;;;5066391;28;20482;-72
2022/11/15 10:01:42;;;;;;;11.57;8.47;;;;;;;;;;5075559;28;20495;-71
2022/11/15 10:09:53;;;;;;;15.70;7.50;;;;;;;;;;5054500;28;20433;-70
2022/11/15 10:12:32;;;;;;;18.80;7.70;;;;;;;;;;5063003;28;20517;-71
2022/11/15 10:15:03;;;;;;;13.13;8.83;;;;;;;;;;5063433;28;20469;-69
2022/11/15 10:17:50;;;;;;;10.80;6.67;;;;;;;;;;5061746;28;20579;-70
2022/11/15 10:20:36;;;;;;;14.47;8.20;;;;;;;;;;5053050;28;20894;-70
2022/11/15 10:23:23;;;;;;;12.73;7.50;;;;;;;;;;5063799;28;20509;-71
2022/11/15 10:25:57;;;;;;;14.17;7.10;;;;;;;;;;5069217;28;20456;-71
2022/11/15 10:28:40;;;;;;;12.00;7.70;;;;;;;;;;5065520;28;20469;-71
2022/11/15 10:31:32;;;;;;;10.03;7.57;;;;;;;;;;5062831;28;20487;-71
2022/11/15 10:34:11;;;;;;;12.33;7.60;;;;;;;;;;5063822;28;20473;-71
2022/11/15 10:36:48;;;;;;;13.10;7.33;;;;;;;;;;5073118;28;21082;-71
2022/11/15 10:39:16;;;;;;;13.70;8.80;;;;;;;;;;5068130;28;20469;-71
2022/11/15 10:41:56;;;;;;;13.77;6.53;;;;;;;;;;5061573;28;20492;-70
2022/11/15 10:44:27;;;;;;;12.30;6.77;;;;;;;;;;5070047;28;20464;-71
2022/11/15 10:47:14;;;;;;;14.33;6.40;;;;;;;;;;5073923;28;20523;-71
2022/11/15 10:49:56;;;;;;;14.53;11.90;;;;;;;;;;5072222;28;20498;-72
2022/11/15 10:52:25;;;;;;;12.97;9.83;;;;;;;;;;5070251;28;20557;-71
2022/11/15 10:54:55;;;;;;;10.83;7.23;;;;;;;;;;5073474;28;20456;-70
2022/11/15 10:57:24;;;;;;;10.87;6.13;;;;;;;;;;5058128;28;20831;-71
2022/11/15 11:00:06;;;;;;;11.37;8.40;;;;;;;;;;5074404;28;21024;-70
2022/11/15 11:02:42;;;;;;;12.23;6.83;;;;;;;;;;5059579;28;20472;-71
2022/11/15 11:05:49;;;;;;;9.23;6.20;;;;;;;;;;5061344;28;20464;-70
2022/11/15 11:08:25;;;;;;;10.40;6.00;;;;;;;;;;5062760;28;20479;-68
2022/11/15 11:11:03;;;;;;;9.50;6.10;;;;;;;;;;5073783;28;20454;-69
2022/11/15 11:13:50;;;;;;;10.03;5.40;;;;;;;;;;5069234;28;20461;-70
2022/11/15 11:16:21;;;;;;;9.80;6.40;;;;;;;;;;5069471;28;20883;-71
2022/11/15 11:18:58;;;;;;;11.43;6.10;;;;;;;;;;5062897;28;20464;-70
2022/11/15 11:21:28;;;;;;;10.17;6.57;;;;;;;;;;5075723;28;20456;-69
2022/11/15 11:24:03;;;;;;;8.90;5.53;;;;;;;;;;5070534;28;20472;-69
2022/11/15 11:26:39;;;;;;;11.17;5.50;;;;;;;;;;5063586;28;20471;-71
2022/11/15 11:29:19;;;;;;;11.83;7.00;;;;;;;;;;5064815;28;20500;-71
2022/11/15 11:31:54;;;;;;;13.40;6.90;;;;;;;;;;5066408;28;20540;-69
2022/11/15 11:34:32;;;;;;;11.83;6.70;;;;;;;;;;5064606;28;20533;-70
2022/11/15 11:37:10;;;;;;;11.83;6.27;;;;;;;;;;5072694;28;20484;-71
2022/11/15 11:39:45;;;;;;;10.60;6.47;;;;;;;;;;5058339;28;20463;-70
2022/11/15 11:42:21;;;;;;;9.80;5.37;;;;;;;;;;5091588;28;20456;-70
2022/11/15 11:45:05;;;;;;;9.57;6.70;;;;;;;;;;5077571;28;20458;-70
2022/11/15 11:47:34;;;;;;;14.30;8.07;;;;;;;;;;5064227;28;20468;-69
2022/11/15 11:50:14;;;;;;;9.63;4.93;;;;;;;;;;5071050;28;20476;-70
2022/11/15 11:52:45;;;;;;;9.17;5.97;;;;;;;;;;5061743;28;20485;-70
2022/11/15 11:55:16;;;;;;;20.10;9.70;;;;;;;;;;5057614;28;20814;-70
2022/11/15 11:57:48;;;;;;;14.80;9.67;;;;;;;;;;5058749;28;20515;-70
2022/11/15 12:00:19;;;;;;;19.10;9.77;;;;;;;;;;5058602;28;20881;-70
2022/11/15 12:02:53;;;;;;;15.73;8.73;;;;;;;;;;5075279;28;20463;-70
2022/11/15 12:05:28;;;;;;;10.63;6.13;;;;;;;;;;5073191;28;20468;-69
2022/11/15 12:07:58;;;;;;;6.37;4.87;;;;;;;;;;5077688;28;20535;-70
2022/11/15 12:10:27;;;;;;;9.27;6.47;;;;;;;;;;5066381;28;20496;-70
2022/11/15 12:13:01;;;;;;;13.70;7.07;;;;;;;;;;5060550;28;20478;-71
2022/11/15 12:15:42;;;;;;;15.33;6.73;;;;;;;;;;5065258;28;20565;-72
2022/11/15 12:18:12;;;;;;;7.27;5.53;;;;;;;;;;5057382;28;20496;-69
2022/11/15 12:20:42;;;;;;;10.53;5.43;;;;;;;;;;5057526;28;20557;-70
2022/11/15 12:23:14;;;;;;;13.43;5.80;;;;;;;;;;5057432;28;20466;-69
2022/11/15 12:25:45;;;;;;;7.60;5.80;;;;;;;;;;5055810;28;20453;-69
2022/11/15 12:31:55;;;;;;;9.93;5.83;;;;;;;;;;5067730;28;20563;-70
2022/11/15 12:35:06;;;;;;;11.60;6.10;;;;;;;;;;5065750;28;20465;-70
2022/11/15 12:37:59;;;;;;;9.93;5.50;;;;;;;;;;4986258;28;20739;-70
2022/11/15 12:40:48;;;;;;;11.47;6.10;;;;;;;;;;5057316;28;20805;-70
2022/11/15 12:46:50;;;;;;;9.90;6.67;;;;;;;;;;5076921;28;20468;-70
2022/11/15 12:50:02;;;;;;;8.07;5.60;;;;;;;;;;5066049;28;20558;-72
2022/11/15 12:52:44;;;;;;;10.20;6.40;;;;;;;;;;5069041;28;20471;-70
2022/11/15 12:55:33;;;;;;;8.53;4.87;;;;;;;;;;5074173;28;20488;-72
2022/11/15 12:58:18;;;;;;;15.20;7.40;;;;;;;;;;5055906;28;20925;-71
2022/11/15 13:00:46;;;;;;;8.03;5.60;;;;;;;;;;5057930;28;20463;-70
2022/11/15 13:04:01;;;;;;;8.57;5.70;;;;;;;;;;5064866;28;20465;-70
2022/11/15 13:06:50;;;;;;;10.47;6.17;;;;;;;;;;5061272;28;20493;-71
2022/11/15 13:12:42;;;;;;;8.00;6.20;;;;;;;;;;5063543;28;20487;-71
2022/11/15 13:15:28;;;;;;;6.70;5.30;;;;;;;;;;5075479;28;20792;-70
2022/11/15 13:18:05;;;;;;;14.80;5.90;;;;;;;;;;5079391;28;20550;-70
2022/11/15 13:20:51;;;;;;;6.53;5.33;;;;;;;;;;5065563;28;20468;-70
2022/11/15 13:23:19;;;;;;;9.40;6.23;;;;;;;;;;5076157;28;20477;-71
2022/11/15 13:26:19;;;;;;;8.67;5.63;;;;;;;;;;5067892;28;20462;-70
2022/11/15 13:28:49;;;;;;;9.40;5.30;;;;;;;;;;5070977;28;20889;-70
2022/11/15 13:31:37;;;;;;;11.93;6.17;;;;;;;;;;5056346;28;20497;-71
2022/11/15 13:37:30;;;;;;;9.73;6.00;;;;;;;;;;5060145;28;20578;-71
2022/11/15 13:40:12;;;;;;;11.33;6.70;;;;;;;;;;5060035;28;20929;-71
2022/11/15 13:42:45;;;;;;;12.30;7.60;;;;;;;;;;5055309;28;20470;-72
2022/11/15 13:45:15;;;;;;;12.60;7.50;;;;;;;;;;5060223;28;20531;-71
2022/11/15 13:47:58;;;;;;;9.70;6.27;;;;;;;;;;5072864;28;20552;-70
2022/11/15 13:50:30;;;;;;;9.30;5.97;;;;;;;;;;5070879;28;20473;-70
2022/11/15 13:53:05;;;;;;;8.50;5.27;;;;;;;;;;5068201;28;20881;-69
2022/11/15 13:55:35;;;;;;;20.13;10.20;;;;;;;;;;5060602;28;20487;-71
2022/11/15 13:58:09;;;;;;;8.17;5.20;;;;;;;;;;5058928;28;20481;-70
2022/11/15 14:00:53;;;;;;;8.03;6.10;;;;;;;;;;5072516;28;20475;-70
2022/11/15 14:03:23;;;;;;;9.90;5.87;;;;;;;;;;5066852;28;20463;-69
2022/11/15 14:06:15;;;;;;;7.87;5.00;;;;;;;;;;5063572;28;20839;-71
2022/11/15 14:09:00;;;;;;;8.37;5.20;;;;;;;;;;5060310;28;20465;-71
2022/11/15 14:11:41;;;;;;;9.00;5.13;;;;;;;;;;5068884;28;20773;-72
2022/11/15 14:14:23;;;;;;;8.63;5.53;;;;;;;;;;5073753;28;20464;-72
2022/11/15 14:22:40;;;;;;;9.77;5.40;;;;;;;;;;5047666;28;20452;-74
2022/11/15 14:25:25;;;;;;;11.67;5.37;;;;;;;;;;5068297;28;20491;-71
2022/11/15 14:28:25;;;;;;;7.73;4.70;;;;;;;;;;5062785;28;20472;-71
2022/11/15 14:31:12;;;;;;;8.33;6.30;;;;;;;;;;5064126;28;20872;-70
2022/11/15 14:43:06;;;;;;;9.30;5.70;;;;;;;;;;5070298;28;20860;-70
2022/11/15 14:51:36;;;;;;;10.37;6.80;;;;;;;;;;5058846;28;20459;-69
2022/11/15 14:57:30;;;;;;;10.37;5.50;;;;;;;;;;5059835;28;20479;-70
2022/11/15 15:00:33;;;;;;;;;;;;;;;;;;;;;
2022/11/15 15:03:15;;;;;;;6.60;4.80;;;;;;;;;;5070242;28;20457;-69
2022/11/15 15:05:48;;;;;;;12.13;6.03;;;;;;;;;;5063174;28;20527;-70
2022/11/15 15:08:21;;;;;;;7.53;5.03;;;;;;;;;;5076523;28;20467;-69
2022/11/15 15:10:57;;;;;;;8.50;6.23;;;;;;;;;;5076350;28;20502;-70
2022/11/15 15:13:51;;;;;;;11.07;5.40;;;;;;;;;;5076795;28;20747;-68
2022/11/15 15:16:56;;;;;;;9.70;5.97;;;;;;;;;;5079124;28;20543;-69
2022/11/15 15:19:43;;;;;;;9.37;5.20;;;;;;;;;;5070720;28;20467;-69
2022/11/15 15:25:38;;;;;;;9.20;5.90;;;;;;;;;;5086692;28;20451;-69
2022/11/15 15:31:34;;;;;;;7.30;4.90;;;;;;;;;;5066777;28;20452;-68
2022/11/15 15:37:47;;;;;;;13.50;5.67;;;;;;;;;;5011919;28;20921;-68
2022/11/15 15:40:23;;;;;;;9.30;5.80;;;;;;;;;;4964609;28;20494;-69
2022/11/15 15:43:13;;;;;;;11.93;6.47;;;;;;;;;;5079529;28;20464;-68
2022/11/15 15:48:45;;;;;;;11.90;7.67;;;;;;;;;;5064770;28;20476;-68
2022/11/15 15:51:25;;;;;;;10.70;6.60;;;;;;;;;;5072523;28;20460;-68
2022/11/15 15:53:58;;;;;;;16.40;6.80;;;;;;;;;;5079037;28;20448;-71
2022/11/15 15:56:38;;;;;;;15.47;6.90;;;;;;;;;;5071816;28;20501;-68
2022/11/15 15:59:16;;;;;;;7.60;6.63;;;;;;;;;;5081090;28;20476;-69
2022/11/15 16:04:37;;;;;;;8.43;5.60;;;;;;;;;;5067548;28;20458;-70
2022/11/15 16:07:14;;;;;;;9.37;6.70;;;;;;;;;;5066630;28;20457;-69
2022/11/15 16:13:03;;;;;;;10.40;7.47;;;;;;;;;;5059994;28;20440;-68
2022/11/15 16:15:43;;;;;;;10.40;7.10;;;;;;;;;;5075724;28;20456;-68
2022/11/15 16:18:25;;;;;;;13.40;7.40;;;;;;;;;;5069083;28;20516;-69
2022/11/15 16:21:08;;;;;;;8.10;5.60;;;;;;;;;;5059580;28;20473;-69
2022/11/15 16:26:26;;;;;;;8.10;6.10;;;;;;;;;;5074651;28;20772;-69
2022/11/15 16:29:00;;;;;;;7.93;5.63;;;;;;;;;;5072711;28;20475;-69
2022/11/15 16:31:55;;;;;;;8.67;5.73;;;;;;;;;;5067713;28;20534;-69